»·PEaware :: N585DC KLAX-KSAN

N585DC :: KLAX-KSAN

FLIGHT INFORMATION

Flight Status: Arrived
Operator: Privately registered:
United States
More flights under this callsign
Pilot: Giorgi G. (17211)
Aircraft: CESSNA 172 SKYHAWK
(C172)
More flights by this aircraft type
Origin: KLAX Los Angeles Intl
United States
Destination: KSAN San Diego Intl-Lindbergh
United States
More flights between these airports :: More routes between these airports
Route: LAX MZB
File this flight plan on PilotEdge
Remarks: CAT-11
Altitude:
(Current/Filed)
5,500ft
Speed:
(Current/Filed)
110kts
Departed: 29-Nov-17 12:39 PM
Arrived: 29-Nov-17 01:52 PM
Distance/Time
Traveled:
95nm/1:12
Distance/Time
To Go:
Arrived

Flight Plot

Page will automatically refresh every two minutes.

Flight plan parsing failed; only flown route is shown


Map Options




Map Legend


Flown Route
Filed Route
Departure Airport
Arrival Airport
Navaid (VOR, NDB)
Fix

Horizontal Profiles

Position Reports

Time Latitude Longitude Heading Altitude Ground
Speed
29-Nov-17 12:30 33.934135 -118.395568 175 129ft 0kts
29-Nov-17 12:31 33.934135 -118.395568 175 129ft 0kts
29-Nov-17 12:32 33.934135 -118.395568 175 129ft 0kts
29-Nov-17 12:33 33.934135 -118.395568 175 129ft 0kts
29-Nov-17 12:34 33.934134 -118.395568 173 129ft 0kts
29-Nov-17 12:35 33.934385 -118.395556 29 129ft 1kts
29-Nov-17 12:36 33.935348 -118.390377 82 129ft 22kts
29-Nov-17 12:37 33.936046 -118.383927 83 129ft 10kts
29-Nov-17 12:38 33.936357 -118.382636 311 129ft 0kts
29-Nov-17 12:39 33.936357 -118.382636 311 129ft 0kts
29-Nov-17 12:40 33.936357 -118.382636 311 129ft 0kts
29-Nov-17 12:41 33.936357 -118.382636 311 129ft 0kts
29-Nov-17 12:42 33.936438 -118.382754 351 129ft 0kts
29-Nov-17 12:43 33.937147 -118.382945 311 129ft 15kts
29-Nov-17 12:44 33.934624 -118.404421 261 622ft 84kts
29-Nov-17 12:45 33.934272 -118.434819 270 1355ft 95kts
29-Nov-17 12:46 33.934151 -118.466244 270 2148ft 92kts
29-Nov-17 12:47 33.934059 -118.499942 271 2507ft 119kts
29-Nov-17 12:48 33.933961 -118.534865 270 3070ft 86kts
29-Nov-17 12:49 33.919285 -118.546233 176 3737ft 79kts
29-Nov-17 12:50 33.894645 -118.545353 176 4296ft 96kts
29-Nov-17 12:51 33.866612 -118.544539 176 4819ft 105kts
29-Nov-17 12:52 33.836900 -118.543938 176 5328ft 108kts
29-Nov-17 12:53 33.808354 -118.533505 112 5510ft 119kts
29-Nov-17 12:54 33.793944 -118.499255 114 5498ft 109kts
29-Nov-17 12:55 33.780411 -118.467150 114 5500ft 106kts
29-Nov-17 12:56 33.767055 -118.435491 114 5501ft 106kts
29-Nov-17 12:57 33.753497 -118.403326 114 5504ft 111kts
29-Nov-17 12:58 33.741164 -118.368627 110 5501ft 113kts
29-Nov-17 12:59 33.729008 -118.333430 110 5501ft 114kts
29-Nov-17 13:00 33.716823 -118.298188 110 5500ft 114kts
29-Nov-17 13:01 33.704657 -118.262992 110 5500ft 114kts
29-Nov-17 13:02 33.692489 -118.227777 110 5500ft 114kts
29-Nov-17 13:03 33.680290 -118.192447 110 5500ft 114kts
29-Nov-17 13:04 33.665146 -118.159322 128 5503ft 115kts
29-Nov-17 13:05 33.643669 -118.130541 132 5501ft 116kts
29-Nov-17 13:06 33.621229 -118.102674 130 5500ft 116kts
29-Nov-17 13:07 33.598966 -118.074496 130 5500ft 116kts
29-Nov-17 13:08 33.577647 -118.044774 132 5502ft 121kts
29-Nov-17 13:09 33.555632 -118.013958 132 5500ft 121kts
29-Nov-17 13:10 33.528378 -117.992328 153 5500ft 117kts
29-Nov-17 13:11 33.503748 -117.966936 139 5500ft 117kts
29-Nov-17 13:12 33.480563 -117.939720 138 5500ft 116kts
29-Nov-17 13:13 33.457574 -117.912774 138 5500ft 115kts
29-Nov-17 13:14 33.434481 -117.886604 139 5500ft 114kts
29-Nov-17 13:15 33.411350 -117.860464 139 5501ft 114kts
29-Nov-17 13:16 33.388255 -117.834037 139 5484ft 114kts
29-Nov-17 13:17 33.365425 -117.807440 139 5487ft 115kts
29-Nov-17 13:18 33.342200 -117.781272 141 5488ft 115kts
29-Nov-17 13:19 33.316633 -117.758426 149 5490ft 115kts
29-Nov-17 13:20 33.290035 -117.736968 150 5491ft 116kts
29-Nov-17 13:21 33.263167 -117.715330 153 5491ft 116kts
29-Nov-17 13:22 33.236018 -117.694330 150 5491ft 117kts
29-Nov-17 13:23 33.209098 -117.672385 150 5491ft 117kts
29-Nov-17 13:24 33.182216 -117.650472 150 5491ft 117kts
29-Nov-17 13:25 33.155525 -117.628119 148 5491ft 117kts
29-Nov-17 13:26 33.129523 -117.604393 147 5490ft 116kts
29-Nov-17 13:27 33.103963 -117.580981 147 5490ft 115kts
29-Nov-17 13:28 33.100775 -117.549292 22 5483ft 125kts
29-Nov-17 13:29 33.128482 -117.565391 316 5490ft 116kts
29-Nov-17 13:30 33.152037 -117.587711 316 5484ft 98kts
29-Nov-17 13:31 33.155063 -117.608638 191 5485ft 83kts
29-Nov-17 13:32 33.137097 -117.590086 137 5491ft 89kts
29-Nov-17 13:33 33.120637 -117.567549 137 5473ft 90kts
29-Nov-17 13:34 33.101135 -117.540170 134 5341ft 118kts
29-Nov-17 13:35 33.080323 -117.509253 133 4632ft 123kts
29-Nov-17 13:36 33.064894 -117.474111 68 3811ft 132kts
29-Nov-17 13:37 33.090354 -117.443503 41 3013ft 129kts
29-Nov-17 13:38 33.112993 -117.440749 277 3006ft 85kts
29-Nov-17 13:39 33.099003 -117.459498 197 3012ft 79kts
29-Nov-17 13:40 33.081594 -117.444258 120 3029ft 95kts
29-Nov-17 13:41 33.066455 -117.415136 128 3019ft 107kts
29-Nov-17 13:42 33.047987 -117.387064 146 3018ft 107kts
29-Nov-17 13:43 33.021235 -117.363717 154 2585ft 120kts
29-Nov-17 13:44 32.992863 -117.346433 155 2079ft 114kts
29-Nov-17 13:45 32.963577 -117.328818 155 1500ft 113kts
29-Nov-17 13:46 32.935991 -117.312131 155 1509ft 110kts
29-Nov-17 13:47 32.908835 -117.295668 155 1511ft 109kts
29-Nov-17 13:48 32.881836 -117.279281 155 1514ft 109kts
29-Nov-17 13:49 32.854734 -117.262812 155 1517ft 109kts
29-Nov-17 13:50 32.827747 -117.246389 155 1522ft 109kts
29-Nov-17 13:51 32.806893 -117.233290 155 1492ft 59kts
29-Nov-17 13:52 32.785115 -117.219724 155 1532ft 107kts
29-Nov-17 13:53 32.759158 -117.205709 161 1091ft 100kts
29-Nov-17 13:54 32.740362 -117.188203 103 987ft 85kts
29-Nov-17 13:55 32.734014 -117.165697 198 861ft 67kts
29-Nov-17 13:56 32.732170 -117.183987 281 21ft 47kts
29-Nov-17 13:57 32.732959 -117.188065 284 21ft 0kts
29-Nov-17 13:58 32.734000 -117.188060 30 21ft 0kts
29-Nov-17 13:59 32.734057 -117.188005 45 21ft 6kts
29-Nov-17 14:00 32.732895 -117.182186 106 21ft 28kts
29-Nov-17 14:01 32.732590 -117.178810 12 21ft 0kts
29-Nov-17 14:02 32.732590 -117.178810 12 21ft 0kts

Navigation Log

Ident Type
Flight plan parsing failed, navigation log unavailable